sensor_id;sensor_type;location;lat;lon;timestamp;P1;durP1;ratioP1;P2;durP2;ratioP2
8632;SDS011;4354;49.832;10.746;2023-01-19T00:00:55;23.93;;;12.57;;
8632;SDS011;4354;49.832;10.746;2023-01-19T00:03:22;21.83;;;12.83;;
8632;SDS011;4354;49.832;10.746;2023-01-19T00:05:48;22.40;;;12.37;;
8632;SDS011;4354;49.832;10.746;2023-01-19T00:08:15;20.87;;;12.70;;
8632;SDS011;4354;49.832;10.746;2023-01-19T00:10:44;25.87;;;13.30;;
8632;SDS011;4354;49.832;10.746;2023-01-19T00:13:13;24.03;;;12.87;;
8632;SDS011;4354;49.832;10.746;2023-01-19T00:15:40;28.77;;;15.17;;
8632;SDS011;4354;49.832;10.746;2023-01-19T00:18:08;25.10;;;13.57;;
8632;SDS011;4354;49.832;10.746;2023-01-19T00:20:36;23.53;;;12.73;;
8632;SDS011;4354;49.832;10.746;2023-01-19T00:23:03;23.20;;;12.80;;
8632;SDS011;4354;49.832;10.746;2023-01-19T00:25:32;23.87;;;12.03;;
8632;SDS011;4354;49.832;10.746;2023-01-19T00:28:00;21.67;;;11.33;;
8632;SDS011;4354;49.832;10.746;2023-01-19T00:30:27;17.80;;;10.70;;
8632;SDS011;4354;49.832;10.746;2023-01-19T00:32:54;18.93;;;10.87;;
8632;SDS011;4354;49.832;10.746;2023-01-19T00:35:21;21.23;;;11.13;;
8632;SDS011;4354;49.832;10.746;2023-01-19T00:37:48;16.83;;;10.53;;
8632;SDS011;4354;49.832;10.746;2023-01-19T00:40:15;15.87;;;9.90;;
8632;SDS011;4354;49.832;10.746;2023-01-19T00:42:42;20.30;;;11.33;;
8632;SDS011;4354;49.832;10.746;2023-01-19T00:45:10;15.63;;;10.03;;
8632;SDS011;4354;49.832;10.746;2023-01-19T00:47:41;16.87;;;10.37;;
8632;SDS011;4354;49.832;10.746;2023-01-19T00:50:08;16.50;;;10.37;;
8632;SDS011;4354;49.832;10.746;2023-01-19T00:52:39;17.70;;;10.33;;
8632;SDS011;4354;49.832;10.746;2023-01-19T00:55:06;19.13;;;12.27;;
8632;SDS011;4354;49.832;10.746;2023-01-19T00:57:34;16.80;;;10.93;;
8632;SDS011;4354;49.832;10.746;2023-01-19T01:00:06;18.80;;;11.33;;
8632;SDS011;4354;49.832;10.746;2023-01-19T01:02:38;19.23;;;12.07;;
8632;SDS011;4354;49.832;10.746;2023-01-19T01:05:07;23.40;;;13.17;;
8632;SDS011;4354;49.832;10.746;2023-01-19T01:07:35;24.77;;;13.70;;
8632;SDS011;4354;49.832;10.746;2023-01-19T01:10:07;23.27;;;13.57;;
8632;SDS011;4354;49.832;10.746;2023-01-19T01:12:35;22.93;;;12.37;;
8632;SDS011;4354;49.832;10.746;2023-01-19T01:15:03;21.80;;;12.00;;
8632;SDS011;4354;49.832;10.746;2023-01-19T01:17:31;20.43;;;11.33;;
8632;SDS011;4354;49.832;10.746;2023-01-19T01:19:58;23.17;;;12.13;;
8632;SDS011;4354;49.832;10.746;2023-01-19T01:22:25;18.27;;;11.37;;
8632;SDS011;4354;49.832;10.746;2023-01-19T01:24:52;17.70;;;10.90;;
8632;SDS011;4354;49.832;10.746;2023-01-19T01:27:19;17.97;;;10.50;;
8632;SDS011;4354;49.832;10.746;2023-01-19T01:29:46;18.50;;;11.97;;
8632;SDS011;4354;49.832;10.746;2023-01-19T01:32:13;18.50;;;11.53;;
8632;SDS011;4354;49.832;10.746;2023-01-19T01:34:41;18.10;;;10.80;;
8632;SDS011;4354;49.832;10.746;2023-01-19T01:37:08;18.63;;;11.40;;
8632;SDS011;4354;49.832;10.746;2023-01-19T01:39:35;21.17;;;11.67;;
8632;SDS011;4354;49.832;10.746;2023-01-19T01:42:02;18.43;;;10.40;;
8632;SDS011;4354;49.832;10.746;2023-01-19T01:44:43;21.47;;;11.70;;
8632;SDS011;4354;49.832;10.746;2023-01-19T01:49:55;18.80;;;11.33;;
8632;SDS011;4354;49.832;10.746;2023-01-19T01:52:48;24.90;;;11.90;;
8632;SDS011;4354;49.832;10.746;2023-01-19T01:55:35;22.50;;;11.30;;
8632;SDS011;4354;49.832;10.746;2023-01-19T01:58:06;19.07;;;11.23;;
8632;SDS011;4354;49.832;10.746;2023-01-19T02:00:36;21.27;;;11.43;;
8632;SDS011;4354;49.832;10.746;2023-01-19T02:03:23;23.53;;;11.63;;
8632;SDS011;4354;49.832;10.746;2023-01-19T02:05:52;17.93;;;10.20;;
8632;SDS011;4354;49.832;10.746;2023-01-19T02:08:29;16.97;;;10.00;;
8632;SDS011;4354;49.832;10.746;2023-01-19T02:11:21;18.13;;;9.83;;
8632;SDS011;4354;49.832;10.746;2023-01-19T02:14:07;18.97;;;10.50;;
8632;SDS011;4354;49.832;10.746;2023-01-19T02:16:34;22.13;;;10.07;;
8632;SDS011;4354;49.832;10.746;2023-01-19T02:19:03;17.57;;;9.87;;
8632;SDS011;4354;49.832;10.746;2023-01-19T02:24:04;17.20;;;9.97;;
8632;SDS011;4354;49.832;10.746;2023-01-19T02:26:38;23.70;;;11.43;;
8632;SDS011;4354;49.832;10.746;2023-01-19T02:29:17;21.33;;;10.90;;
8632;SDS011;4354;49.832;10.746;2023-01-19T02:31:46;21.93;;;11.07;;
8632;SDS011;4354;49.832;10.746;2023-01-19T02:34:14;20.57;;;11.43;;
8632;SDS011;4354;49.832;10.746;2023-01-19T02:39:19;22.00;;;12.10;;
8632;SDS011;4354;49.832;10.746;2023-01-19T02:41:58;22.37;;;11.87;;
8632;SDS011;4354;49.832;10.746;2023-01-19T02:44:28;23.27;;;12.13;;
8632;SDS011;4354;49.832;10.746;2023-01-19T02:46:56;25.90;;;12.90;;
8632;SDS011;4354;49.832;10.746;2023-01-19T02:49:26;23.23;;;12.43;;
8632;SDS011;4354;49.832;10.746;2023-01-19T02:51:53;21.73;;;11.70;;
8632;SDS011;4354;49.832;10.746;2023-01-19T03:05:52;19.73;;;10.40;;
8632;SDS011;4354;49.832;10.746;2023-01-19T03:11:23;16.13;;;9.57;;
8632;SDS011;4354;49.832;10.746;2023-01-19T03:13:56;18.40;;;9.90;;
8632;SDS011;4354;49.832;10.746;2023-01-19T03:16:46;17.37;;;9.57;;
8632;SDS011;4354;49.832;10.746;2023-01-19T03:19:20;19.53;;;10.17;;
8632;SDS011;4354;49.832;10.746;2023-01-19T03:21:58;20.53;;;10.00;;
8632;SDS011;4354;49.832;10.746;2023-01-19T03:24:29;20.43;;;10.40;;
8632;SDS011;4354;49.832;10.746;2023-01-19T03:27:01;18.37;;;9.63;;
8632;SDS011;4354;49.832;10.746;2023-01-19T03:29:55;16.93;;;8.97;;
8632;SDS011;4354;49.832;10.746;2023-01-19T03:32:36;17.57;;;9.97;;
8632;SDS011;4354;49.832;10.746;2023-01-19T03:35:09;17.07;;;9.33;;
8632;SDS011;4354;49.832;10.746;2023-01-19T03:37:39;16.97;;;9.80;;
8632;SDS011;4354;49.832;10.746;2023-01-19T03:40:10;18.10;;;9.57;;
8632;SDS011;4354;49.832;10.746;2023-01-19T03:42:37;14.97;;;8.97;;
8632;SDS011;4354;49.832;10.746;2023-01-19T03:45:06;16.93;;;9.37;;
8632;SDS011;4354;49.832;10.746;2023-01-19T03:47:34;16.20;;;9.53;;
8632;SDS011;4354;49.832;10.746;2023-01-19T03:50:02;15.90;;;9.03;;
8632;SDS011;4354;49.832;10.746;2023-01-19T03:52:34;16.03;;;9.40;;
8632;SDS011;4354;49.832;10.746;2023-01-19T03:55:01;14.23;;;7.57;;
8632;SDS011;4354;49.832;10.746;2023-01-19T03:57:30;15.70;;;8.50;;
8632;SDS011;4354;49.832;10.746;2023-01-19T03:59:57;15.33;;;8.63;;
8632;SDS011;4354;49.832;10.746;2023-01-19T04:02:24;16.43;;;8.77;;
8632;SDS011;4354;49.832;10.746;2023-01-19T04:04:52;15.53;;;9.20;;
8632;SDS011;4354;49.832;10.746;2023-01-19T04:07:18;19.93;;;9.30;;
8632;SDS011;4354;49.832;10.746;2023-01-19T04:09:45;23.37;;;9.90;;
8632;SDS011;4354;49.832;10.746;2023-01-19T04:12:12;19.43;;;10.63;;
8632;SDS011;4354;49.832;10.746;2023-01-19T04:14:39;18.93;;;10.07;;
8632;SDS011;4354;49.832;10.746;2023-01-19T04:17:06;27.37;;;11.50;;
8632;SDS011;4354;49.832;10.746;2023-01-19T04:19:32;20.50;;;9.77;;
8632;SDS011;4354;49.832;10.746;2023-01-19T04:21:59;18.00;;;8.87;;
8632;SDS011;4354;49.832;10.746;2023-01-19T04:24:27;15.50;;;8.73;;
8632;SDS011;4354;49.832;10.746;2023-01-19T04:26:53;17.40;;;9.93;;
8632;SDS011;4354;49.832;10.746;2023-01-19T04:29:20;19.27;;;10.60;;
8632;SDS011;4354;49.832;10.746;2023-01-19T04:31:47;15.30;;;8.93;;
8632;SDS011;4354;49.832;10.746;2023-01-19T04:34:14;20.47;;;10.57;;
8632;SDS011;4354;49.832;10.746;2023-01-19T04:36:41;15.43;;;9.30;;
8632;SDS011;4354;49.832;10.746;2023-01-19T04:39:07;16.90;;;10.20;;
8632;SDS011;4354;49.832;10.746;2023-01-19T04:41:36;18.70;;;9.80;;
8632;SDS011;4354;49.832;10.746;2023-01-19T04:44:03;19.40;;;11.23;;
8632;SDS011;4354;49.832;10.746;2023-01-19T04:46:31;24.13;;;11.73;;
8632;SDS011;4354;49.832;10.746;2023-01-19T04:48:58;22.47;;;11.80;;
8632;SDS011;4354;49.832;10.746;2023-01-19T04:51:25;22.07;;;11.30;;
8632;SDS011;4354;49.832;10.746;2023-01-19T04:53:53;20.80;;;11.37;;
8632;SDS011;4354;49.832;10.746;2023-01-19T04:56:21;20.97;;;11.57;;
8632;SDS011;4354;49.832;10.746;2023-01-19T04:58:47;18.53;;;11.30;;
8632;SDS011;4354;49.832;10.746;2023-01-19T05:01:14;22.07;;;10.90;;
8632;SDS011;4354;49.832;10.746;2023-01-19T05:03:43;36.10;;;15.97;;
8632;SDS011;4354;49.832;10.746;2023-01-19T05:06:10;30.27;;;13.97;;
8632;SDS011;4354;49.832;10.746;2023-01-19T05:08:38;30.40;;;13.70;;
8632;SDS011;4354;49.832;10.746;2023-01-19T05:11:04;39.87;;;16.07;;
8632;SDS011;4354;49.832;10.746;2023-01-19T05:13:31;36.80;;;15.20;;
8632;SDS011;4354;49.832;10.746;2023-01-19T05:15:59;29.27;;;13.83;;
8632;SDS011;4354;49.832;10.746;2023-01-19T05:18:26;27.17;;;12.40;;
8632;SDS011;4354;49.832;10.746;2023-01-19T05:20:53;28.97;;;13.10;;
8632;SDS011;4354;49.832;10.746;2023-01-19T05:23:19;28.43;;;12.97;;
8632;SDS011;4354;49.832;10.746;2023-01-19T05:25:46;23.00;;;12.23;;
8632;SDS011;4354;49.832;10.746;2023-01-19T05:28:13;24.77;;;12.03;;
8632;SDS011;4354;49.832;10.746;2023-01-19T05:30:41;31.57;;;15.17;;
8632;SDS011;4354;49.832;10.746;2023-01-19T05:33:08;30.07;;;14.50;;
8632;SDS011;4354;49.832;10.746;2023-01-19T05:35:35;25.50;;;13.70;;
8632;SDS011;4354;49.832;10.746;2023-01-19T05:38:02;26.73;;;13.67;;
8632;SDS011;4354;49.832;10.746;2023-01-19T05:40:29;26.97;;;13.50;;
8632;SDS011;4354;49.832;10.746;2023-01-19T05:42:56;19.90;;;12.83;;
8632;SDS011;4354;49.832;10.746;2023-01-19T05:45:26;25.07;;;12.50;;
8632;SDS011;4354;49.832;10.746;2023-01-19T05:47:53;23.00;;;12.57;;
8632;SDS011;4354;49.832;10.746;2023-01-19T05:50:20;21.23;;;12.37;;
8632;SDS011;4354;49.832;10.746;2023-01-19T05:52:47;20.57;;;12.23;;
8632;SDS011;4354;49.832;10.746;2023-01-19T05:55:14;18.13;;;10.93;;
8632;SDS011;4354;49.832;10.746;2023-01-19T05:57:44;18.97;;;10.67;;
8632;SDS011;4354;49.832;10.746;2023-01-19T06:00:10;22.17;;;11.47;;
8632;SDS011;4354;49.832;10.746;2023-01-19T06:02:38;21.80;;;12.13;;
8632;SDS011;4354;49.832;10.746;2023-01-19T06:05:05;22.27;;;12.40;;
8632;SDS011;4354;49.832;10.746;2023-01-19T06:07:32;20.27;;;12.33;;
8632;SDS011;4354;49.832;10.746;2023-01-19T06:09:59;22.20;;;13.00;;
8632;SDS011;4354;49.832;10.746;2023-01-19T06:12:26;20.63;;;11.73;;
8632;SDS011;4354;49.832;10.746;2023-01-19T06:14:52;21.67;;;11.83;;
8632;SDS011;4354;49.832;10.746;2023-01-19T06:17:19;20.47;;;12.47;;
8632;SDS011;4354;49.832;10.746;2023-01-19T06:19:46;20.93;;;12.73;;
8632;SDS011;4354;49.832;10.746;2023-01-19T06:22:12;19.37;;;11.67;;
8632;SDS011;4354;49.832;10.746;2023-01-19T06:24:39;19.10;;;11.37;;
8632;SDS011;4354;49.832;10.746;2023-01-19T06:27:06;20.70;;;11.70;;
8632;SDS011;4354;49.832;10.746;2023-01-19T06:29:33;18.93;;;10.93;;
8632;SDS011;4354;49.832;10.746;2023-01-19T06:31:59;22.13;;;11.83;;
8632;SDS011;4354;49.832;10.746;2023-01-19T06:34:26;21.47;;;11.43;;
8632;SDS011;4354;49.832;10.746;2023-01-19T06:36:54;23.37;;;12.03;;
8632;SDS011;4354;49.832;10.746;2023-01-19T06:39:22;25.60;;;12.83;;
8632;SDS011;4354;49.832;10.746;2023-01-19T06:41:49;26.17;;;13.10;;
8632;SDS011;4354;49.832;10.746;2023-01-19T06:44:15;25.67;;;13.93;;
8632;SDS011;4354;49.832;10.746;2023-01-19T06:46:42;26.40;;;14.30;;
8632;SDS011;4354;49.832;10.746;2023-01-19T06:49:09;29.47;;;14.87;;
8632;SDS011;4354;49.832;10.746;2023-01-19T06:51:36;21.07;;;12.07;;
8632;SDS011;4354;49.832;10.746;2023-01-19T06:54:03;26.60;;;14.00;;
8632;SDS011;4354;49.832;10.746;2023-01-19T06:56:30;19.77;;;11.83;;
8632;SDS011;4354;49.832;10.746;2023-01-19T06:58:57;23.20;;;13.00;;
8632;SDS011;4354;49.832;10.746;2023-01-19T07:01:24;21.03;;;11.43;;
8632;SDS011;4354;49.832;10.746;2023-01-19T07:03:52;28.53;;;13.83;;
8632;SDS011;4354;49.832;10.746;2023-01-19T07:06:18;19.83;;;12.20;;
8632;SDS011;4354;49.832;10.746;2023-01-19T07:08:45;22.47;;;13.33;;
8632;SDS011;4354;49.832;10.746;2023-01-19T07:11:12;26.27;;;14.53;;
8632;SDS011;4354;49.832;10.746;2023-01-19T07:13:56;24.53;;;13.57;;
8632;SDS011;4354;49.832;10.746;2023-01-19T07:16:22;27.93;;;13.63;;
8632;SDS011;4354;49.832;10.746;2023-01-19T07:18:49;31.20;;;13.90;;
8632;SDS011;4354;49.832;10.746;2023-01-19T07:21:16;26.13;;;13.50;;
8632;SDS011;4354;49.832;10.746;2023-01-19T07:23:46;29.00;;;15.70;;
8632;SDS011;4354;49.832;10.746;2023-01-19T07:26:14;29.37;;;16.13;;
8632;SDS011;4354;49.832;10.746;2023-01-19T07:28:43;24.00;;;14.97;;
8632;SDS011;4354;49.832;10.746;2023-01-19T07:31:13;22.27;;;13.27;;
8632;SDS011;4354;49.832;10.746;2023-01-19T07:33:40;20.40;;;12.17;;
8632;SDS011;4354;49.832;10.746;2023-01-19T07:36:07;24.43;;;13.47;;
8632;SDS011;4354;49.832;10.746;2023-01-19T07:38:34;25.40;;;14.70;;
8632;SDS011;4354;49.832;10.746;2023-01-19T07:41:05;24.73;;;14.23;;
8632;SDS011;4354;49.832;10.746;2023-01-19T07:43:33;21.07;;;14.03;;
8632;SDS011;4354;49.832;10.746;2023-01-19T07:46:01;21.30;;;13.43;;
8632;SDS011;4354;49.832;10.746;2023-01-19T07:48:28;21.77;;;13.33;;
8632;SDS011;4354;49.832;10.746;2023-01-19T07:50:58;27.00;;;14.87;;
8632;SDS011;4354;49.832;10.746;2023-01-19T07:53:26;24.03;;;14.40;;
8632;SDS011;4354;49.832;10.746;2023-01-19T07:55:56;26.77;;;14.23;;
8632;SDS011;4354;49.832;10.746;2023-01-19T07:58:23;38.17;;;19.90;;
8632;SDS011;4354;49.832;10.746;2023-01-19T08:00:51;28.63;;;17.37;;
8632;SDS011;4354;49.832;10.746;2023-01-19T08:03:18;30.10;;;16.53;;
8632;SDS011;4354;49.832;10.746;2023-01-19T08:05:48;28.90;;;16.87;;
8632;SDS011;4354;49.832;10.746;2023-01-19T08:08:16;30.57;;;16.00;;
8632;SDS011;4354;49.832;10.746;2023-01-19T08:10:43;26.27;;;15.97;;
8632;SDS011;4354;49.832;10.746;2023-01-19T08:13:10;24.73;;;14.80;;
8632;SDS011;4354;49.832;10.746;2023-01-19T08:15:37;25.90;;;15.47;;
8632;SDS011;4354;49.832;10.746;2023-01-19T08:18:04;32.63;;;18.07;;
8632;SDS011;4354;49.832;10.746;2023-01-19T08:20:32;32.67;;;18.37;;
8632;SDS011;4354;49.832;10.746;2023-01-19T08:22:58;32.63;;;19.57;;
8632;SDS011;4354;49.832;10.746;2023-01-19T08:25:33;29.67;;;19.67;;
8632;SDS011;4354;49.832;10.746;2023-01-19T08:28:11;33.33;;;18.30;;
8632;SDS011;4354;49.832;10.746;2023-01-19T08:30:40;33.97;;;20.13;;
8632;SDS011;4354;49.832;10.746;2023-01-19T08:33:09;29.83;;;18.47;;
8632;SDS011;4354;49.832;10.746;2023-01-19T08:35:38;30.80;;;18.27;;
8632;SDS011;4354;49.832;10.746;2023-01-19T08:38:07;28.57;;;18.03;;
8632;SDS011;4354;49.832;10.746;2023-01-19T08:40:36;29.77;;;17.27;;
8632;SDS011;4354;49.832;10.746;2023-01-19T08:43:08;33.57;;;18.37;;
8632;SDS011;4354;49.832;10.746;2023-01-19T08:45:37;27.80;;;16.67;;
8632;SDS011;4354;49.832;10.746;2023-01-19T08:48:06;23.60;;;14.93;;
8632;SDS011;4354;49.832;10.746;2023-01-19T08:50:33;25.33;;;16.87;;
8632;SDS011;4354;49.832;10.746;2023-01-19T08:53:01;23.13;;;15.50;;
8632;SDS011;4354;49.832;10.746;2023-01-19T08:55:32;21.97;;;14.40;;
8632;SDS011;4354;49.832;10.746;2023-01-19T08:58:00;19.97;;;14.17;;
8632;SDS011;4354;49.832;10.746;2023-01-19T09:00:31;20.57;;;14.73;;
8632;SDS011;4354;49.832;10.746;2023-01-19T09:02:59;21.33;;;14.13;;
8632;SDS011;4354;49.832;10.746;2023-01-19T09:05:29;19.90;;;15.37;;
8632;SDS011;4354;49.832;10.746;2023-01-19T09:08:00;18.80;;;14.03;;
8632;SDS011;4354;49.832;10.746;2023-01-19T09:10:28;19.13;;;15.10;;
8632;SDS011;4354;49.832;10.746;2023-01-19T09:13:01;16.07;;;13.90;;
8632;SDS011;4354;49.832;10.746;2023-01-19T09:15:33;18.23;;;14.47;;
8632;SDS011;4354;49.832;10.746;2023-01-19T09:18:04;20.97;;;14.50;;
8632;SDS011;4354;49.832;10.746;2023-01-19T09:20:32;16.63;;;12.67;;
8632;SDS011;4354;49.832;10.746;2023-01-19T09:23:01;16.27;;;12.50;;
8632;SDS011;4354;49.832;10.746;2023-01-19T09:25:28;17.87;;;13.37;;
8632;SDS011;4354;49.832;10.746;2023-01-19T09:27:55;23.63;;;16.93;;
8632;SDS011;4354;49.832;10.746;2023-01-19T09:30:24;21.17;;;15.47;;
8632;SDS011;4354;49.832;10.746;2023-01-19T09:32:53;19.90;;;14.57;;
8632;SDS011;4354;49.832;10.746;2023-01-19T09:35:19;22.53;;;15.40;;
8632;SDS011;4354;49.832;10.746;2023-01-19T09:37:46;20.17;;;15.23;;
8632;SDS011;4354;49.832;10.746;2023-01-19T09:40:14;23.47;;;16.17;;
8632;SDS011;4354;49.832;10.746;2023-01-19T09:42:44;19.50;;;14.00;;
8632;SDS011;4354;49.832;10.746;2023-01-19T09:48:09;15.20;;;11.63;;
8632;SDS011;4354;49.832;10.746;2023-01-19T09:51:02;13.47;;;10.13;;
8632;SDS011;4354;49.832;10.746;2023-01-19T09:56:22;14.27;;;9.57;;
8632;SDS011;4354;49.832;10.746;2023-01-19T09:58:49;17.07;;;11.00;;
8632;SDS011;4354;49.832;10.746;2023-01-19T10:01:23;13.77;;;8.57;;
8632;SDS011;4354;49.832;10.746;2023-01-19T10:04:44;14.37;;;9.60;;
8632;SDS011;4354;49.832;10.746;2023-01-19T10:06:56;12.50;;;8.40;;
8632;SDS011;4354;49.832;10.746;2023-01-19T10:12:13;9.27;;;7.80;;
8632;SDS011;4354;49.832;10.746;2023-01-19T10:14:54;10.93;;;7.67;;
8632;SDS011;4354;49.832;10.746;2023-01-19T10:17:40;10.27;;;7.40;;
8632;SDS011;4354;49.832;10.746;2023-01-19T10:20:18;12.27;;;7.90;;
8632;SDS011;4354;49.832;10.746;2023-01-19T10:22:54;12.20;;;7.73;;
8632;SDS011;4354;49.832;10.746;2023-01-19T10:25:24;11.90;;;8.70;;
8632;SDS011;4354;49.832;10.746;2023-01-19T10:27:52;14.83;;;10.27;;
8632;SDS011;4354;49.832;10.746;2023-01-19T10:30:22;14.10;;;8.60;;
8632;SDS011;4354;49.832;10.746;2023-01-19T10:32:52;11.40;;;7.60;;
8632;SDS011;4354;49.832;10.746;2023-01-19T10:35:21;11.60;;;7.63;;
8632;SDS011;4354;49.832;10.746;2023-01-19T10:37:55;10.00;;;7.83;;
8632;SDS011;4354;49.832;10.746;2023-01-19T10:40:36;10.20;;;6.90;;
8632;SDS011;4354;49.832;10.746;2023-01-19T10:46:00;8.13;;;6.67;;
8632;SDS011;4354;49.832;10.746;2023-01-19T10:48:37;8.47;;;6.43;;
8632;SDS011;4354;49.832;10.746;2023-01-19T10:51:08;10.50;;;6.93;;
8632;SDS011;4354;49.832;10.746;2023-01-19T10:53:36;8.30;;;6.80;;
8632;SDS011;4354;49.832;10.746;2023-01-19T10:56:16;12.03;;;7.23;;
8632;SDS011;4354;49.832;10.746;2023-01-19T10:58:48;8.37;;;6.67;;
8632;SDS011;4354;49.832;10.746;2023-01-19T11:01:17;9.77;;;7.20;;
8632;SDS011;4354;49.832;10.746;2023-01-19T11:03:51;9.63;;;6.60;;
8632;SDS011;4354;49.832;10.746;2023-01-19T11:06:21;8.63;;;6.60;;
8632;SDS011;4354;49.832;10.746;2023-01-19T11:09:08;8.57;;;6.77;;
8632;SDS011;4354;49.832;10.746;2023-01-19T11:11:49;9.07;;;6.53;;
8632;SDS011;4354;49.832;10.746;2023-01-19T11:14:18;8.80;;;7.10;;
8632;SDS011;4354;49.832;10.746;2023-01-19T11:16:54;9.93;;;6.67;;
8632;SDS011;4354;49.832;10.746;2023-01-19T11:19:27;7.60;;;5.70;;
8632;SDS011;4354;49.832;10.746;2023-01-19T11:24:47;10.17;;;6.53;;
8632;SDS011;4354;49.832;10.746;2023-01-19T11:27:20;7.90;;;6.33;;
8632;SDS011;4354;49.832;10.746;2023-01-19T11:29:48;7.80;;;6.00;;
8632;SDS011;4354;49.832;10.746;2023-01-19T11:32:22;7.40;;;5.80;;
8632;SDS011;4354;49.832;10.746;2023-01-19T11:34:52;9.73;;;6.00;;
8632;SDS011;4354;49.832;10.746;2023-01-19T11:42:16;7.90;;;5.77;;
8632;SDS011;4354;49.832;10.746;2023-01-19T11:44:54;11.17;;;6.83;;
8632;SDS011;4354;49.832;10.746;2023-01-19T11:47:37;8.67;;;6.83;;
8632;SDS011;4354;49.832;10.746;2023-01-19T11:50:20;9.17;;;7.03;;
8632;SDS011;4354;49.832;10.746;2023-01-19T11:53:12;8.90;;;6.63;;
8632;SDS011;4354;49.832;10.746;2023-01-19T11:58:30;6.47;;;5.10;;
8632;SDS011;4354;49.832;10.746;2023-01-19T12:01:12;8.17;;;6.07;;
8632;SDS011;4354;49.832;10.746;2023-01-19T12:03:53;7.20;;;5.20;;
8632;SDS011;4354;49.832;10.746;2023-01-19T12:06:21;6.60;;;5.37;;
8632;SDS011;4354;49.832;10.746;2023-01-19T12:08:54;6.80;;;4.77;;
8632;SDS011;4354;49.832;10.746;2023-01-19T12:11:26;7.80;;;5.10;;
8632;SDS011;4354;49.832;10.746;2023-01-19T12:14:00;6.13;;;4.90;;
8632;SDS011;4354;49.832;10.746;2023-01-19T12:16:28;6.47;;;5.33;;
8632;SDS011;4354;49.832;10.746;2023-01-19T12:19:05;6.23;;;5.20;;
8632;SDS011;4354;49.832;10.746;2023-01-19T12:21:40;6.30;;;5.07;;
8632;SDS011;4354;49.832;10.746;2023-01-19T12:26:55;6.43;;;4.60;;
8632;SDS011;4354;49.832;10.746;2023-01-19T12:29:24;7.00;;;4.77;;
8632;SDS011;4354;49.832;10.746;2023-01-19T12:34:47;5.23;;;4.10;;
8632;SDS011;4354;49.832;10.746;2023-01-19T12:39:57;7.23;;;5.10;;
8632;SDS011;4354;49.832;10.746;2023-01-19T12:42:26;5.90;;;4.67;;
8632;SDS011;4354;49.832;10.746;2023-01-19T12:45:06;4.50;;;4.10;;
8632;SDS011;4354;49.832;10.746;2023-01-19T12:47:40;5.40;;;4.30;;
8632;SDS011;4354;49.832;10.746;2023-01-19T12:50:18;4.67;;;4.00;;
8632;SDS011;4354;49.832;10.746;2023-01-19T12:52:49;5.10;;;4.43;;
8632;SDS011;4354;49.832;10.746;2023-01-19T12:55:21;4.10;;;3.43;;
8632;SDS011;4354;49.832;10.746;2023-01-19T12:58:00;4.27;;;3.70;;
8632;SDS011;4354;49.832;10.746;2023-01-19T13:00:47;8.33;;;3.97;;
8632;SDS011;4354;49.832;10.746;2023-01-19T13:13:21;6.43;;;4.30;;
8632;SDS011;4354;49.832;10.746;2023-01-19T13:15:50;5.30;;;4.80;;
8632;SDS011;4354;49.832;10.746;2023-01-19T13:18:24;6.03;;;4.87;;
8632;SDS011;4354;49.832;10.746;2023-01-19T13:20:56;6.30;;;4.67;;
8632;SDS011;4354;49.832;10.746;2023-01-19T13:23:24;4.63;;;4.23;;
8632;SDS011;4354;49.832;10.746;2023-01-19T13:26:15;5.77;;;4.23;;
8632;SDS011;4354;49.832;10.746;2023-01-19T13:28:45;7.07;;;4.57;;
8632;SDS011;4354;49.832;10.746;2023-01-19T13:31:15;5.03;;;4.30;;
8632;SDS011;4354;49.832;10.746;2023-01-19T13:33:55;6.50;;;4.43;;
8632;SDS011;4354;49.832;10.746;2023-01-19T13:36:28;5.90;;;4.60;;
8632;SDS011;4354;49.832;10.746;2023-01-19T13:39:01;4.90;;;4.40;;
8632;SDS011;4354;49.832;10.746;2023-01-19T13:41:37;7.40;;;4.67;;
8632;SDS011;4354;49.832;10.746;2023-01-19T13:44:17;6.17;;;4.60;;
8632;SDS011;4354;49.832;10.746;2023-01-19T13:47:02;7.63;;;4.67;;
8632;SDS011;4354;49.832;10.746;2023-01-19T13:49:31;7.27;;;5.10;;
8632;SDS011;4354;49.832;10.746;2023-01-19T13:52:04;6.87;;;4.80;;
8632;SDS011;4354;49.832;10.746;2023-01-19T13:54:31;6.50;;;5.53;;
8632;SDS011;4354;49.832;10.746;2023-01-19T13:56:58;7.47;;;5.27;;
8632;SDS011;4354;49.832;10.746;2023-01-19T13:59:25;11.97;;;6.13;;
8632;SDS011;4354;49.832;10.746;2023-01-19T14:01:52;7.40;;;5.87;;
8632;SDS011;4354;49.832;10.746;2023-01-19T14:04:23;6.63;;;5.90;;
8632;SDS011;4354;49.832;10.746;2023-01-19T14:06:51;7.83;;;6.27;;
8632;SDS011;4354;49.832;10.746;2023-01-19T14:09:21;8.87;;;6.20;;
8632;SDS011;4354;49.832;10.746;2023-01-19T14:12:04;7.13;;;5.47;;
8632;SDS011;4354;49.832;10.746;2023-01-19T14:14:43;8.30;;;5.60;;
8632;SDS011;4354;49.832;10.746;2023-01-19T14:17:24;7.73;;;5.83;;
8632;SDS011;4354;49.832;10.746;2023-01-19T14:19:54;8.20;;;6.40;;
8632;SDS011;4354;49.832;10.746;2023-01-19T14:22:42;8.00;;;6.67;;
8632;SDS011;4354;49.832;10.746;2023-01-19T14:25:26;8.33;;;6.20;;
8632;SDS011;4354;49.832;10.746;2023-01-19T14:31:18;8.30;;;6.30;;
8632;SDS011;4354;49.832;10.746;2023-01-19T14:33:51;13.17;;;6.70;;
8632;SDS011;4354;49.832;10.746;2023-01-19T14:39:12;8.93;;;6.77;;
8632;SDS011;4354;49.832;10.746;2023-01-19T14:41:48;8.23;;;6.60;;
8632;SDS011;4354;49.832;10.746;2023-01-19T14:44:36;8.13;;;6.13;;
8632;SDS011;4354;49.832;10.746;2023-01-19T14:47:04;7.77;;;6.17;;
8632;SDS011;4354;49.832;10.746;2023-01-19T14:49:36;8.13;;;6.00;;
8632;SDS011;4354;49.832;10.746;2023-01-19T14:52:05;9.23;;;6.10;;
8632;SDS011;4354;49.832;10.746;2023-01-19T14:54:45;6.53;;;5.43;;
8632;SDS011;4354;49.832;10.746;2023-01-19T14:57:13;8.33;;;5.90;;
8632;SDS011;4354;49.832;10.746;2023-01-19T14:59:40;10.50;;;6.53;;
8632;SDS011;4354;49.832;10.746;2023-01-19T15:02:11;9.33;;;6.17;;
8632;SDS011;4354;49.832;10.746;2023-01-19T15:04:38;10.23;;;6.07;;
8632;SDS011;4354;49.832;10.746;2023-01-19T15:07:05;10.20;;;6.90;;
8632;SDS011;4354;49.832;10.746;2023-01-19T15:09:42;8.53;;;6.73;;
8632;SDS011;4354;49.832;10.746;2023-01-19T15:12:11;7.37;;;5.70;;
8632;SDS011;4354;49.832;10.746;2023-01-19T15:14:42;9.97;;;7.10;;
8632;SDS011;4354;49.832;10.746;2023-01-19T15:17:14;10.33;;;7.00;;
8632;SDS011;4354;49.832;10.746;2023-01-19T15:19:51;9.07;;;6.47;;
8632;SDS011;4354;49.832;10.746;2023-01-19T15:22:21;7.97;;;6.13;;
8632;SDS011;4354;49.832;10.746;2023-01-19T15:24:52;7.57;;;6.40;;
8632;SDS011;4354;49.832;10.746;2023-01-19T15:27:22;10.27;;;7.20;;
8632;SDS011;4354;49.832;10.746;2023-01-19T15:29:49;8.13;;;7.10;;
8632;SDS011;4354;49.832;10.746;2023-01-19T15:32:16;9.13;;;7.10;;
8632;SDS011;4354;49.832;10.746;2023-01-19T15:34:43;11.17;;;6.80;;
8632;SDS011;4354;49.832;10.746;2023-01-19T15:37:10;10.50;;;7.27;;
8632;SDS011;4354;49.832;10.746;2023-01-19T15:39:37;8.07;;;5.97;;
8632;SDS011;4354;49.832;10.746;2023-01-19T15:42:08;9.47;;;7.03;;
8632;SDS011;4354;49.832;10.746;2023-01-19T15:44:39;8.73;;;6.83;;
8632;SDS011;4354;49.832;10.746;2023-01-19T15:47:06;8.47;;;6.10;;
8632;SDS011;4354;49.832;10.746;2023-01-19T15:49:34;7.80;;;6.30;;
8632;SDS011;4354;49.832;10.746;2023-01-19T15:52:01;8.07;;;7.10;;
8632;SDS011;4354;49.832;10.746;2023-01-19T15:54:28;12.33;;;7.80;;
8632;SDS011;4354;49.832;10.746;2023-01-19T15:56:55;13.00;;;8.40;;
8632;SDS011;4354;49.832;10.746;2023-01-19T15:59:22;9.40;;;7.90;;
8632;SDS011;4354;49.832;10.746;2023-01-19T16:01:48;19.07;;;9.53;;
8632;SDS011;4354;49.832;10.746;2023-01-19T16:04:16;17.63;;;9.77;;
8632;SDS011;4354;49.832;10.746;2023-01-19T16:06:43;16.07;;;9.77;;
8632;SDS011;4354;49.832;10.746;2023-01-19T16:09:10;10.23;;;7.73;;
8632;SDS011;4354;49.832;10.746;2023-01-19T16:11:41;12.57;;;8.20;;